Time;durP1;ratioP1;P1;durP2;ratioP2;P2;SDS_P1;SDS_P2;PMS_P1;PMS_P2;Temp;Humidity;BMP_temperature;BMP_pressure;BME280_temperature;BME280_humidity;BME280_pressure;Samples;Min_cycle;Max_cycle;Signal;HPM_P1;HPM_P2
2022/11/29 00:01:20;;;;;;;61.47;30.63;;;;;;;1.70;100.00;100693.16;5094829;28;20111;-72
2022/11/29 00:03:47;;;;;;;68.25;34.88;;;;;;;1.72;100.00;100694.31;5078375;28;20032;-72
2022/11/29 00:06:15;;;;;;;56.63;29.55;;;;;;;1.70;100.00;100690.34;5096222;28;20020;-73
2022/11/29 00:08:42;;;;;;;63.72;33.25;;;;;;;1.69;100.00;100691.56;5076912;28;20140;-71
2022/11/29 00:11:13;;;;;;;62.83;31.23;;;;;;;1.71;100.00;100694.72;5094768;28;20388;-71
2022/11/29 00:13:41;;;;;;;67.78;32.63;;;;;;;1.72;100.00;100691.50;5096026;28;20376;-72
2022/11/29 00:16:10;;;;;;;64.55;31.13;;;;;;;1.78;100.00;100697.47;5094757;28;20020;-73
2022/11/29 00:18:37;;;;;;;62.58;30.33;;;;;;;1.79;100.00;100697.03;5077786;28;20020;-71
2022/11/29 00:21:07;;;;;;;60.95;29.67;;;;;;;1.80;100.00;100701.44;5077075;28;20126;-72
2022/11/29 00:23:34;;;;;;;62.67;29.83;;;;;;;1.80;100.00;100701.44;5094580;28;20039;-72
2022/11/29 00:26:18;;;;;;;67.07;33.72;;;;;;;1.76;100.00;100689.41;5077595;28;20028;-71
2022/11/29 00:28:43;;;;;;;56.00;28.63;;;;;;;1.77;100.00;100693.03;5095845;28;20115;-72
2022/11/29 00:31:25;;;;;;;61.80;31.00;;;;;;;1.77;100.00;100693.84;5095569;28;20112;-70
2022/11/29 00:33:52;;;;;;;62.85;31.17;;;;;;;1.70;100.00;100684.69;5095785;28;20020;-72
2022/11/29 00:36:26;;;;;;;58.35;28.90;;;;;;;1.67;100.00;100688.34;5094299;28;20035;-71
2022/11/29 00:38:52;;;;;;;65.50;30.70;;;;;;;1.64;100.00;100687.19;5094156;28;20016;-72
2022/11/29 00:41:19;;;;;;;61.33;30.67;;;;;;;1.68;100.00;100695.59;5094124;28;20076;-72
2022/11/29 00:43:44;;;;;;;65.82;31.60;;;;;;;1.68;100.00;100695.59;5093877;28;20031;-73
2022/11/29 00:46:12;;;;;;;66.80;32.47;;;;;;;1.69;100.00;100691.56;5094993;28;20477;-73
2022/11/29 00:48:39;;;;;;;61.20;30.00;;;;;;;1.73;100.00;100693.09;5095535;28;20055;-71
2022/11/29 00:51:20;;;;;;;63.40;31.27;;;;;;;1.71;100.00;100686.28;5095139;28;20027;-72
2022/11/29 00:53:46;;;;;;;64.78;31.40;;;;;;;1.63;100.00;100673.50;5095433;28;20031;-73
2022/11/29 00:56:12;;;;;;;63.22;30.77;;;;;;;1.66;100.00;100684.72;5094601;28;20150;-73
2022/11/29 00:58:38;;;;;;;60.45;28.48;;;;;;;1.68;100.00;100678.69;5093803;28;20433;-72
2022/11/29 01:01:04;;;;;;;64.82;32.92;;;;;;;1.66;100.00;100684.72;5095129;28;20038;-72
2022/11/29 01:03:29;;;;;;;60.20;30.13;;;;;;;1.64;100.00;100681.56;5060152;28;20031;-72
2022/11/29 01:06:05;;;;;;;65.72;31.83;;;;;;;1.65;100.00;100676.72;5094856;28;20081;-72
2022/11/29 01:08:32;;;;;;;59.10;31.30;;;;;;;1.68;100.00;100682.28;5076451;28;20147;-72
2022/11/29 01:11:11;;;;;;;56.00;29.90;;;;;;;1.70;100.00;100681.88;5092980;28;20489;-72
2022/11/29 01:13:45;;;;;;;60.65;30.52;;;;;;;1.72;100.00;100682.25;5077159;28;20127;-72
2022/11/29 01:16:13;;;;;;;60.47;29.63;;;;;;;1.66;100.00;100684.72;5093630;28;20400;-72
2022/11/29 01:18:40;;;;;;;59.47;29.92;;;;;;;1.63;100.00;100676.34;5059966;28;20028;-72
2022/11/29 01:21:09;;;;;;;59.97;29.67;;;;;;;1.62;100.00;100678.34;5093427;28;20078;-72
2022/11/29 01:23:36;;;;;;;62.97;29.05;;;;;;;1.60;100.00;100691.28;5060783;28;20042;-72
2022/11/29 01:26:15;;;;;;;59.22;29.55;;;;;;;1.57;100.00;100683.66;5094299;28;20357;-71
2022/11/29 01:28:52;;;;;;;65.90;29.27;;;;;;;1.56;100.00;100690.50;5095058;28;20042;-71
2022/11/29 01:31:22;;;;;;;54.22;28.17;;;;;;;1.59;100.00;100693.28;5094840;28;20100;-70
2022/11/29 01:33:47;;;;;;;62.90;27.90;;;;;;;1.62;100.00;100686.00;5093246;28;20032;-71
2022/11/29 01:36:14;;;;;;;62.60;28.30;;;;;;;1.58;100.00;100686.06;5093892;28;20032;-72
2022/11/29 01:38:44;;;;;;;58.83;28.13;;;;;;;1.64;100.00;100684.38;5093165;28;20032;-71
2022/11/29 01:41:14;;;;;;;62.28;29.20;;;;;;;1.64;100.00;100687.19;5094499;28;20103;-71
2022/11/29 01:44:05;;;;;;;51.28;26.75;;;;;;;1.64;100.00;100683.56;5076256;28;20093;-72
2022/11/29 01:46:36;;;;;;;54.60;26.90;;;;;;;1.62;100.00;100680.38;5094392;28;20054;-72
2022/11/29 01:49:21;;;;;;;55.33;28.08;;;;;;;1.61;100.00;100676.75;5093091;28;20053;-71
2022/11/29 01:51:54;;;;;;;53.83;26.80;;;;;;;1.62;100.00;100681.16;5093031;28;20042;-72
2022/11/29 01:54:21;;;;;;;55.67;27.13;;;;;;;1.63;100.00;100684.78;5076044;28;20028;-72
2022/11/29 01:56:49;;;;;;;61.78;27.85;;;;;;;1.64;100.00;100681.56;5075864;28;20031;-72
2022/11/29 01:59:18;;;;;;;58.58;27.67;;;;;;;1.61;100.00;100678.75;5075755;28;20052;-72
2022/11/29 02:01:45;;;;;;;57.58;26.35;;;;;;;1.52;100.00;100678.47;5092610;28;20472;-71
2022/11/29 02:04:19;;;;;;;56.88;27.35;;;;;;;1.54;100.00;100681.69;5093845;28;20031;-72
2022/11/29 02:06:45;;;;;;;49.92;25.58;;;;;;;1.59;100.00;100675.59;5092945;28;20481;-72
2022/11/29 02:09:18;;;;;;;55.47;26.63;;;;;;;1.61;100.00;100671.13;5058594;28;20604;-72
2022/11/29 02:12:02;;;;;;;49.40;25.85;;;;;;;1.68;100.00;100673.06;5093575;28;20028;-71
2022/11/29 02:14:45;;;;;;;56.35;27.30;;;;;;;1.74;100.00;100677.00;5093978;28;20051;-70
2022/11/29 02:17:35;;;;;;;57.95;26.05;;;;;;;1.77;100.00;100674.13;5093730;28;20469;-72
2022/11/29 02:20:23;;;;;;;47.33;24.52;;;;;;;1.76;100.00;100674.53;5092601;28;20481;-72
2022/11/29 02:23:10;;;;;;;51.20;24.70;;;;;;;1.74;100.00;100677.00;5093793;28;20024;-72
2022/11/29 02:25:56;;;;;;;46.50;23.48;;;;;;;1.76;100.00;100683.78;5093485;28;20028;-71
2022/11/29 02:28:49;;;;;;;50.17;24.23;;;;;;;1.78;100.00;100675.72;5093525;28;20029;-71
2022/11/29 02:31:26;;;;;;;47.28;23.25;;;;;;;1.80;100.00;100678.09;5091720;28;20042;-73
2022/11/29 02:34:30;;;;;;;44.30;22.70;;;;;;;1.83;100.00;100685.72;5092727;28;20067;-71
2022/11/29 02:37:24;;;;;;;49.50;23.27;;;;;;;1.89;100.00;100679.19;5093394;28;20047;-71
2022/11/29 02:40:10;;;;;;;46.97;23.40;;;;;;;1.86;100.00;100677.22;5093047;28;20518;-71
2022/11/29 02:42:50;;;;;;;49.78;22.30;;;;;;;1.86;100.00;100680.03;5093158;28;20085;-72
2022/11/29 02:45:36;;;;;;;52.45;22.98;;;;;;;1.88;100.00;100686.03;5092358;28;20035;-72
2022/11/29 02:48:29;;;;;;;48.40;24.67;;;;;;;1.91;100.00;100684.38;5093640;28;20028;-72
2022/11/29 02:51:15;;;;;;;51.45;23.48;;;;;;;1.91;100.00;100687.19;5093665;28;20028;-72
2022/11/29 02:54:00;;;;;;;48.80;23.58;;;;;;;1.88;100.00;100696.50;5091922;28;20469;-72
2022/11/29 02:56:48;;;;;;;46.08;23.67;;;;;;;1.85;100.00;100697.34;5091989;28;20028;-71
2022/11/29 02:59:28;;;;;;;53.20;25.08;;;;;;;1.85;100.00;100703.78;5093143;28;20461;-71
2022/11/29 03:02:02;;;;;;;57.92;24.98;;;;;;;1.82;100.00;100704.63;5093285;28;20032;-72
2022/11/29 03:04:43;;;;;;;52.17;25.50;;;;;;;1.85;100.00;100706.59;5093452;28;20024;-72
2022/11/29 03:07:11;;;;;;;50.35;24.73;;;;;;;1.89;100.00;100706.56;5092771;28;20119;-72
2022/11/29 03:09:55;;;;;;;48.22;25.02;;;;;;;1.88;100.00;100705.78;5092860;28;20492;-72
2022/11/29 03:12:40;;;;;;;50.38;25.88;;;;;;;1.89;100.00;100709.38;5091875;28;20103;-72
2022/11/29 03:15:21;;;;;;;49.35;24.20;;;;;;;1.86;100.00;100719.47;5093326;28;20028;-70
2022/11/29 03:18:02;;;;;;;53.50;26.55;;;;;;;1.82;100.00;100718.72;5093100;28;20028;-71
2022/11/29 03:20:39;;;;;;;43.80;21.85;;;;;;;1.83;100.00;100713.91;5091835;28;20021;-71
2022/11/29 03:23:35;;;;;;;45.33;22.38;;;;;;;1.84;100.00;100710.66;5091787;28;20112;-71
2022/11/29 03:26:10;;;;;;;45.53;23.30;;;;;;;1.85;100.00;100719.88;5091767;28;20032;-71
2022/11/29 03:28:40;;;;;;;61.25;25.55;;;;;;;1.84;100.00;100718.31;5091718;28;20020;-73
2022/11/29 03:31:09;;;;;;;51.15;24.52;;;;;;;1.85;100.00;100715.06;5091939;28;20028;-71
2022/11/29 03:34:12;;;;;;;46.55;23.00;;;;;;;1.88;100.00;100719.84;5093196;28;20024;-72
2022/11/29 03:37:05;;;;;;;50.00;22.73;;;;;;;1.88;100.00;100719.06;5091711;28;20411;-72
2022/11/29 03:39:50;;;;;;;44.03;20.50;;;;;;;1.90;100.00;100719.41;5093201;28;20020;-73
2022/11/29 03:42:45;;;;;;;47.17;23.42;;;;;;;1.96;100.00;100719.75;5091847;28;20373;-72
2022/11/29 03:45:20;;;;;;;49.97;23.38;;;;;;;1.93;100.00;100715.75;5095306;28;20024;-73
2022/11/29 03:47:58;;;;;;;51.97;23.52;;;;;;;1.91;100.00;100724.63;5096466;28;20377;-72
2022/11/29 03:50:32;;;;;;;49.10;22.88;;;;;;;1.94;100.00;100720.19;5095301;28;20377;-73
2022/11/29 03:53:07;;;;;;;49.83;23.08;;;;;;;1.98;100.00;100714.50;5062393;28;20042;-72
2022/11/29 03:55:48;;;;;;;44.55;22.42;;;;;;;2.00;100.00;100720.47;5078240;28;20105;-73
2022/11/29 03:58:31;;;;;;;43.87;22.27;;;;;;;1.99;100.00;100719.72;5078717;28;20081;-72
2022/11/29 04:01:21;;;;;;;44.78;22.13;;;;;;;1.97;100.00;100722.16;5095332;28;20039;-72
2022/11/29 04:04:02;;;;;;;46.05;23.85;;;;;;;2.01;100.00;100722.09;5096158;28;20105;-72
2022/11/29 04:07:06;;;;;;;47.20;23.27;;;;;;;1.98;100.00;100720.13;5094952;28;20024;-72
2022/11/29 04:10:10;;;;;;;45.58;23.10;;;;;;;1.93;100.00;100721.41;5094472;28;20286;-73
2022/11/29 04:13:09;;;;;;;50.72;21.95;;;;;;;1.92;100.00;100726.25;5095352;28;20040;-71
2022/11/29 04:16:11;;;;;;;46.47;21.67;;;;;;;1.95;100.00;100727.41;5024675;28;20033;-72
2022/11/29 04:19:01;;;;;;;46.13;21.45;;;;;;;1.92;100.00;100722.63;5095797;28;20035;-74
2022/11/29 04:21:49;;;;;;;50.22;24.08;;;;;;;1.93;100.00;100732.66;5095785;28;20126;-73
2022/11/29 04:24:34;;;;;;;50.45;23.63;;;;;;;1.92;100.00;100733.88;5095661;28;20449;-73
2022/11/29 04:27:24;;;;;;;42.50;22.77;;;;;;;1.94;100.00;100727.84;5094427;28;20036;-73
2022/11/29 04:29:51;;;;;;;45.38;21.88;;;;;;;1.90;100.00;100739.94;5094298;28;20123;-71
2022/11/29 04:32:18;;;;;;;42.95;20.23;;;;;;;1.90;100.00;100739.94;5095604;28;20023;-71
2022/11/29 04:35:06;;;;;;;45.35;22.25;;;;;;;1.92;100.00;100734.69;5095788;28;20028;-73
2022/11/29 04:37:50;;;;;;;43.40;20.58;;;;;;;1.91;100.00;100738.72;5095648;28;20032;-72
2022/11/29 04:40:55;;;;;;;44.40;20.40;;;;;;;1.89;100.00;100740.38;5095670;28;20111;-71
2022/11/29 04:43:46;;;;;;;41.58;20.35;;;;;;;1.92;100.00;100743.13;5095249;28;20032;-71
2022/11/29 04:46:31;;;;;;;38.15;19.85;;;;;;;1.96;100.00;100748.72;5095700;28;20031;-73
2022/11/29 04:49:07;;;;;;;42.35;20.15;;;;;;;1.96;100.00;100757.19;5095301;28;20488;-73
2022/11/29 04:52:00;;;;;;;47.45;21.73;;;;;;;1.97;100.00;100753.13;5095430;28;20024;-72
2022/11/29 04:55:11;;;;;;;39.42;20.75;;;;;;;1.98;100.00;100759.56;5093605;28;20472;-73
2022/11/29 04:58:01;;;;;;;43.70;20.30;;;;;;;1.96;100.00;100760.00;5089842;28;20032;-72
2022/11/29 05:00:28;;;;;;;41.65;21.25;;;;;;;1.91;100.00;100752.81;5091924;28;20046;-71
2022/11/29 05:02:58;;;;;;;47.10;19.45;;;;;;;1.97;100.00;100764.41;5077147;28;20040;-71
2022/11/29 05:05:46;;;;;;;45.17;21.70;;;;;;;2.01;100.00;100755.91;5077361;28;20552;-72
2022/11/29 05:08:35;;;;;;;43.65;20.98;;;;;;;1.99;100.00;100761.97;5094737;28;20131;-72
2022/11/29 05:11:42;;;;;;;49.28;21.58;;;;;;;1.95;100.00;100764.03;5093379;28;20035;-72
2022/11/29 05:14:27;;;;;;;39.58;20.33;;;;;;;1.97;100.00;100757.97;5093481;28;20412;-73
2022/11/29 05:17:27;;;;;;;48.60;22.38;;;;;;;1.96;100.00;100768.44;5094692;28;20104;-72
2022/11/29 05:20:02;;;;;;;38.30;19.42;;;;;;;1.97;100.00;100767.22;5012727;28;20045;-72
2022/11/29 05:22:39;;;;;;;41.03;21.42;;;;;;;1.96;100.00;100762.00;5094792;28;20044;-72
2022/11/29 05:25:32;;;;;;;39.65;20.77;;;;;;;1.98;100.00;100777.28;5093090;28;20039;-71
2022/11/29 05:28:23;;;;;;;45.65;23.73;;;;;;;2.01;100.00;100772.81;5092955;28;20028;-72
2022/11/29 05:31:07;;;;;;;39.92;19.80;;;;;;;2.05;100.00;100771.53;5094420;28;20110;-72
2022/11/29 05:34:01;;;;;;;39.25;20.02;;;;;;;2.04;100.00;100774.81;5094465;28;20024;-72
2022/11/29 05:36:41;;;;;;;41.05;21.75;;;;;;;2.06;100.00;100780.78;5094856;28;20024;-71
2022/11/29 05:39:28;;;;;;;41.08;20.00;;;;;;;2.01;100.00;100772.81;5093965;28;20035;-71
2022/11/29 05:42:35;;;;;;;44.22;22.10;;;;;;;2.06;100.00;100780.78;5093794;28;20099;-72
2022/11/29 05:45:13;;;;;;;39.15;19.25;;;;;;;2.05;100.00;100779.19;4999139;28;20049;-71
2022/11/29 05:48:14;;;;;;;39.83;20.23;;;;;;;2.08;100.00;100781.19;5012399;28;20077;-71
2022/11/29 05:50:44;;;;;;;46.03;21.20;;;;;;;2.11;100.00;100795.22;5024759;28;20115;-73
2022/11/29 05:53:23;;;;;;;50.90;20.25;;;;;;;2.08;100.00;100784.00;5093742;28;20116;-73
2022/11/29 05:56:44;;;;;;;47.63;22.92;;;;;;;2.07;100.00;100793.66;5093036;28;20028;-73
2022/11/29 05:59:19;;;;;;;38.72;19.60;;;;;;;2.07;100.00;100797.28;5012024;28;20047;-74
2022/11/29 06:02:11;;;;;;;44.65;21.23;;;;;;;2.11;100.00;100798.03;4995270;28;20041;-75
2022/11/29 06:04:56;;;;;;;39.80;21.88;;;;;;;2.13;100.00;100797.63;4972992;28;20096;-76
2022/11/29 06:08:05;;;;;;;47.40;21.65;;;;;;;2.13;100.00;100804.06;5042886;28;20491;-75
2022/11/29 06:10:38;;;;;;;48.67;23.63;;;;;;;2.12;100.00;100810.91;5093259;28;20032;-74
2022/11/29 06:13:28;;;;;;;44.35;23.40;;;;;;;2.11;100.00;100803.69;5076092;28;20070;-74
2022/11/29 06:16:32;;;;;;;48.08;21.83;;;;;;;2.10;100.00;100801.28;5093908;28;20039;-74
2022/11/29 06:19:07;;;;;;;45.35;23.05;;;;;;;2.09;100.00;100808.97;5093567;28;20032;-74
2022/11/29 06:21:52;;;;;;;43.30;23.65;;;;;;;2.09;100.00;100817.41;5093807;28;20034;-75
2022/11/29 06:24:42;;;;;;;45.10;22.92;;;;;;;2.14;100.00;100816.94;5093312;28;20040;-75
2022/11/29 06:27:28;;;;;;;44.50;22.52;;;;;;;2.17;100.00;100815.28;5093169;28;20060;-74
2022/11/29 06:30:05;;;;;;;47.80;22.15;;;;;;;2.15;100.00;100820.53;5092230;28;20040;-73
2022/11/29 06:32:53;;;;;;;45.97;22.60;;;;;;;2.15;100.00;100824.16;5091513;28;20087;-70
2022/11/29 06:35:52;;;;;;;46.00;22.45;;;;;;;2.24;100.00;100837.75;5092581;28;20033;-72
2022/11/29 06:38:36;;;;;;;46.53;22.70;;;;;;;2.23;100.00;100838.97;5092512;28;20032;-72
2022/11/29 06:41:03;;;;;;;40.58;20.98;;;;;;;2.25;100.00;100839.31;5092620;28;20077;-73
2022/11/29 06:43:29;;;;;;;50.42;23.00;;;;;;;2.24;100.00;100835.72;5093748;28;20142;-73
2022/11/29 06:46:20;;;;;;;47.47;22.90;;;;;;;2.23;100.00;100834.13;5093442;28;20476;-73
2022/11/29 06:48:58;;;;;;;50.40;23.65;;;;;;;2.23;100.00;100844.59;5092092;28;20067;-72
2022/11/29 06:51:59;;;;;;;47.58;22.77;;;;;;;2.29;100.00;100840.09;5093529;28;20126;-72
2022/11/29 06:54:48;;;;;;;47.72;23.15;;;;;;;2.27;100.00;100843.34;5089121;28;20044;-72
2022/11/29 06:57:15;;;;;;;49.22;22.52;;;;;;;2.32;100.00;100842.88;5073279;28;20028;-72
2022/11/29 07:00:15;;;;;;;44.83;23.13;;;;;;;2.31;100.00;100843.28;5073344;28;20025;-73
2022/11/29 07:03:05;;;;;;;44.67;22.13;;;;;;;2.35;100.00;100844.03;5070647;28;20031;-73
2022/11/29 07:05:35;;;;;;;50.95;25.38;;;;;;;2.36;100.00;100840.00;5073280;28;20060;-72
2022/11/29 07:08:05;;;;;;;47.95;23.58;;;;;;;2.43;100.00;100847.56;5082487;28;20060;-70
2022/11/29 07:10:34;;;;;;;50.13;23.20;;;;;;;2.44;100.00;100835.06;5075359;28;20138;-68
2022/11/29 07:13:00;;;;;;;48.72;24.90;;;;;;;2.47;100.00;100837.03;5089254;28;20047;-69
2022/11/29 07:15:27;;;;;;;50.15;23.83;;;;;;;2.48;100.00;100845.06;5093418;28;20031;-70
2022/11/29 07:18:02;;;;;;;53.72;25.95;;;;;;;2.54;100.00;100839.75;5093102;28;20138;-70
2022/11/29 07:20:54;;;;;;;55.25;23.55;;;;;;;2.58;100.00;100846.94;5096391;28;20075;-74
2022/11/29 07:24:01;;;;;;;49.35;23.95;;;;;;;2.63;100.00;100842.84;5078960;28;20393;-74
2022/11/29 07:26:48;;;;;;;49.75;23.92;;;;;;;2.64;100.00;100852.88;5058497;28;20185;-72
2022/11/29 07:29:25;;;;;;;49.35;24.08;;;;;;;2.68;100.00;100853.66;5097205;28;20028;-75
2022/11/29 07:32:01;;;;;;;45.22;22.10;;;;;;;2.71;100.00;100855.63;5078831;28;20032;-77
2022/11/29 07:35:01;;;;;;;41.65;22.85;;;;;;;2.71;100.00;100836.66;5078732;28;20331;-78
2022/11/29 07:38:13;;;;;;;55.35;24.17;;;;;;;2.74;100.00;100849.13;5097276;28;20047;-77
2022/11/29 07:41:04;;;;;;;46.83;22.60;;;;;;;2.75;100.00;100848.69;5061755;28;20070;-76
2022/11/29 07:44:09;;;;;;;41.58;23.67;;;;;;;2.76;100.00;100853.13;5092990;28;20050;-73
2022/11/29 07:46:35;;;;;;;49.13;22.42;;;;;;;2.79;100.00;100848.63;5095415;28;20495;-79
2022/11/29 07:49:02;;;;;;;50.80;23.65;;;;;;;2.83;100.00;100857.88;5095429;28;20116;-79
2022/11/29 07:51:30;;;;;;;48.05;22.50;;;;;;;2.83;100.00;100857.88;5078262;28;20031;-75
2022/11/29 07:53:56;;;;;;;44.83;22.95;;;;;;;2.85;100.00;100852.59;5095702;28;20059;-71
2022/11/29 07:56:22;;;;;;;49.10;24.05;;;;;;;2.90;100.00;100856.94;5095163;28;20427;-72
2022/11/29 07:58:49;;;;;;;51.67;24.73;;;;;;;2.94;100.00;100852.84;5095019;28;20468;-71
2022/11/29 08:01:14;;;;;;;45.20;23.98;;;;;;;3.04;100.00;100863.16;5094977;28;20070;-73
2022/11/29 08:03:41;;;;;;;49.35;22.20;;;;;;;3.07;100.00;100861.53;5096514;28;20063;-76
2022/11/29 08:06:08;;;;;;;45.60;23.25;;;;;;;3.12;100.00;100859.00;5078367;28;20055;-75
2022/11/29 08:08:35;;;;;;;46.63;22.38;;;;;;;3.19;100.00;100866.56;5061167;28;20109;-70
2022/11/29 08:11:01;;;;;;;44.25;23.02;;;;;;;3.26;100.00;100872.09;5077937;28;20028;-70
2022/11/29 08:13:28;;;;;;;44.08;21.45;;;;;;;3.32;100.00;100867.56;5096309;28;20028;-71
2022/11/29 08:15:53;;;;;;;42.10;20.40;;;;;;;3.38;100.00;100863.00;5094884;28;20067;-71
2022/11/29 08:18:20;;;;;;;49.97;21.92;;;;;;;3.45;100.00;100864.91;5096062;28;20058;-75
2022/11/29 08:20:45;;;;;;;49.45;22.08;;;;;;;3.47;100.00;100859.63;5094881;28;20020;-74
2022/11/29 08:23:12;;;;;;;47.13;22.77;;;;;;;3.48;100.00;100861.22;5096240;28;20426;-74
2022/11/29 08:25:38;;;;;;;43.65;22.08;;;;;;;3.52;100.00;100864.78;5096118;28;20381;-75
2022/11/29 08:28:04;;;;;;;48.30;22.88;;;;;;;3.53;100.00;100866.38;5094211;28;20040;-74
2022/11/29 08:30:31;;;;;;;39.50;22.15;;;;;;;3.52;100.00;100864.78;5095288;28;20031;-75
2022/11/29 08:32:57;;;;;;;46.22;22.70;;;;;;;3.55;100.00;100869.56;5077487;28;20035;-75
2022/11/29 08:35:24;;;;;;;47.38;22.83;;;;;;;3.53;100.00;100867.16;5096073;28;20024;-72
2022/11/29 08:37:53;;;;;;;49.75;23.70;;;;;;;3.56;100.00;100879.66;5095977;28;20038;-74
2022/11/29 08:40:18;;;;;;;46.45;23.40;;;;;;;3.59;100.00;100875.94;5094365;28;20030;-75
2022/11/29 08:42:44;;;;;;;56.47;25.48;;;;;;;3.57;100.00;100884.06;5094503;28;20027;-73
2022/11/29 08:45:11;;;;;;;58.30;23.70;;;;;;;3.60;100.00;100875.53;5095524;28;20057;-73
2022/11/29 08:47:39;;;;;;;50.97;23.65;;;;;;;3.62;100.00;100870.22;5095096;28;20111;-75
2022/11/29 08:50:15;;;;;;;50.60;23.98;;;;;;;3.70;100.00;100870.09;5094150;28;20032;-73
2022/11/29 08:55:35;;;;;;;51.20;24.08;;;;;;;3.74;100.00;100880.13;5094103;28;20408;-71
2022/11/29 08:58:04;;;;;;;53.75;24.42;;;;;;;3.74;100.00;100873.66;5077697;28;20032;-72
2022/11/29 09:00:31;;;;;;;46.78;25.02;;;;;;;3.62;100.00;100852.50;5093814;28;20465;-70
2022/11/29 09:03:58;;;;;;;48.85;24.13;;;;;;;3.82;100.00;100881.56;5085197;28;20036;-78
2022/11/29 09:05:45;;;;;;;51.13;23.50;;;;;;;3.90;100.00;100874.59;5094767;28;20081;-71
2022/11/29 09:08:10;;;;;;;51.08;26.17;;;;;;;3.95;100.00;100888.22;5094260;28;20071;-74
2022/11/29 09:10:42;;;;;;;50.00;23.45;;;;;;;4.05;100.00;100886.44;5095051;28;20073;-76
2022/11/29 09:13:10;;;;;;;50.97;24.85;;;;;;;4.12;100.00;100888.34;5094362;28;20113;-72
2022/11/29 09:15:37;;;;;;;43.55;24.13;;;;;;;4.10;100.00;100885.94;5092454;28;20118;-72
2022/11/29 09:18:04;;;;;;;47.63;24.08;;;;;;;4.12;100.00;100885.50;5077516;28;20070;-76
2022/11/29 09:20:32;;;;;;;51.35;25.23;;;;;;;4.19;100.00;100891.81;5096523;28;20031;-79
2022/11/29 09:22:58;;;;;;;47.00;23.83;;;;;;;4.15;100.00;100888.25;5075554;28;20054;-73
2022/11/29 09:25:25;;;;;;;45.80;23.52;;;;;;;4.15;100.00;100881.78;5093122;28;20032;-76
2022/11/29 09:27:50;;;;;;;48.47;24.33;;;;;;;4.10;100.00;100885.13;5093291;28;20485;-80
2022/11/29 09:30:33;;;;;;;50.53;24.23;;;;;;;4.18;100.00;100895.84;5094455;28;20036;-80
2022/11/29 09:33:04;;;;;;;50.70;24.98;;;;;;;4.18;100.00;100900.72;5095907;28;20485;-76
2022/11/29 09:35:31;;;;;;;49.17;23.90;;;;;;;4.18;100.00;100897.88;5094677;28;20024;-79
2022/11/29 09:37:56;;;;;;;56.15;24.20;;;;;;;4.13;100.00;100898.38;5095237;28;20385;-77
2022/11/29 09:40:33;;;;;;;49.33;25.00;;;;;;;4.12;100.00;100894.00;5094737;28;20483;-74
2022/11/29 09:43:04;;;;;;;49.80;24.58;;;;;;;4.10;100.00;100891.59;5093429;28;20024;-74
2022/11/29 09:45:36;;;;;;;52.45;25.30;;;;;;;4.10;100.00;100888.75;5076698;28;20077;-75
2022/11/29 09:48:17;;;;;;;53.00;25.15;;;;;;;4.10;100.00;100885.94;5093227;28;20036;-76
2022/11/29 09:51:15;;;;;;;45.53;23.33;;;;;;;4.12;100.00;100891.16;5094397;28;20023;-74
2022/11/29 09:53:55;;;;;;;49.20;24.45;;;;;;;4.12;100.00;100888.34;5088968;28;20089;-73
2022/11/29 09:56:41;;;;;;;55.35;25.27;;;;;;;4.14;100.00;100886.66;5092791;28;20020;-74
2022/11/29 09:59:24;;;;;;;53.70;23.02;;;;;;;4.28;100.00;100888.38;5093348;28;20055;-76
2022/11/29 10:02:28;;;;;;;58.30;24.83;;;;;;;4.33;100.00;100879.38;5093130;28;20152;-78
2022/11/29 10:05:15;;;;;;;44.85;22.00;;;;;;;4.46;100.00;100883.94;5092605;28;20473;-78
2022/11/29 10:07:47;;;;;;;46.55;23.65;;;;;;;4.59;100.00;100875.59;5092529;28;20036;-77
2022/11/29 10:10:19;;;;;;;45.53;23.63;;;;;;;4.74;100.00;100888.19;5075701;28;20024;-78
2022/11/29 10:12:52;;;;;;;49.50;22.73;;;;;;;4.80;100.00;100889.28;5075986;28;20063;-77
2022/11/29 10:15:24;;;;;;;51.95;23.40;;;;;;;4.90;100.00;100881.78;5093890;28;20147;-73
2022/11/29 10:17:54;;;;;;;46.03;24.20;;;;;;;5.06;100.00;100887.44;5094389;28;20032;-76
2022/11/29 10:20:28;;;;;;;53.75;23.23;;;;;;;5.14;100.00;100893.75;5094259;28;20024;-74
2022/11/29 10:23:22;;;;;;;50.78;23.85;;;;;;;5.16;100.00;100886.41;5092989;28;20032;-74
2022/11/29 10:26:09;;;;;;;46.83;23.30;;;;;;;5.26;100.00;100895.88;5093451;28;20039;-74
2022/11/29 10:28:35;;;;;;;49.00;24.23;;;;;;;5.33;100.00;100890.03;5090087;28;20051;-72
2022/11/29 10:31:15;;;;;;;50.95;23.55;;;;;;;5.35;100.00;100890.41;5092532;28;20032;-73
2022/11/29 10:33:41;;;;;;;49.25;25.30;;;;;;;5.44;100.00;100892.63;5075592;28;20081;-74
2022/11/29 10:36:30;;;;;;;53.33;24.02;;;;;;;5.50;100.00;100888.03;5093459;28;20028;-74
2022/11/29 10:39:08;;;;;;;48.05;23.13;;;;;;;5.51;100.00;100890.38;5093578;28;20032;-74
2022/11/29 10:41:35;;;;;;;55.33;24.30;;;;;;;5.54;100.00;100888.72;5093658;28;20027;-73
2022/11/29 10:44:01;;;;;;;53.17;23.83;;;;;;;5.61;100.00;100888.53;5093658;28;20333;-74
2022/11/29 10:46:32;;;;;;;48.75;23.63;;;;;;;5.52;100.00;100869.31;5092478;28;20034;-74
2022/11/29 10:49:05;;;;;;;43.63;22.67;;;;;;;5.64;100.00;100881.97;5075529;28;20500;-74
2022/11/29 10:51:32;;;;;;;47.45;23.17;;;;;;;5.51;100.00;100876.22;5093017;28;20039;-75
2022/11/29 10:54:26;;;;;;;40.53;21.05;;;;;;;5.53;100.00;100873.75;5094543;28;20028;-75
2022/11/29 10:56:54;;;;;;;40.75;21.00;;;;;;;5.59;100.00;100879.69;5096379;28;20465;-76
2022/11/29 10:59:29;;;;;;;44.25;20.67;;;;;;;5.62;100.00;100882.41;5079511;28;20032;-74
2022/11/29 11:01:56;;;;;;;40.55;20.45;;;;;;;5.65;100.00;100877.88;5079553;28;20369;-77
2022/11/29 11:04:36;;;;;;;42.97;21.65;;;;;;;5.69;100.00;100873.72;5079187;28;20119;-75
2022/11/29 11:07:03;;;;;;;40.28;20.55;;;;;;;5.74;100.00;100876.03;5079285;28;20024;-73
2022/11/29 11:09:41;;;;;;;44.08;21.80;;;;;;;5.75;100.00;100876.81;5096033;28;20054;-78
2022/11/29 11:12:14;;;;;;;38.45;20.20;;;;;;;5.85;100.00;100869.25;5096011;28;20139;-74
2022/11/29 11:14:42;;;;;;;41.50;20.35;;;;;;;5.95;100.00;100868.16;5097357;28;20032;-74
2022/11/29 11:17:21;;;;;;;40.13;22.25;;;;;;;6.03;100.00;100875.25;5097194;28;20020;-74
2022/11/29 11:19:56;;;;;;;46.35;22.48;;;;;;;6.04;100.00;100865.50;5096277;28;20024;-74
2022/11/29 11:22:23;;;;;;;43.60;21.23;;;;;;;6.04;100.00;100871.19;5096844;28;20429;-74
2022/11/29 11:24:57;;;;;;;41.58;21.52;;;;;;;6.01;100.00;100870.00;5062256;28;20122;-74
2022/11/29 11:27:34;;;;;;;42.00;21.67;;;;;;;5.95;100.00;100871.00;5095560;28;20113;-75
2022/11/29 11:30:01;;;;;;;41.28;22.13;;;;;;;6.00;100.00;100870.44;5078893;28;20056;-74
2022/11/29 11:32:28;;;;;;;44.58;21.02;;;;;;;6.01;100.00;100870.00;5096600;28;20568;-74
2022/11/29 11:34:59;;;;;;;42.08;20.73;;;;;;;6.05;100.00;100864.22;5078155;28;20043;-73
2022/11/29 11:37:30;;;;;;;39.88;21.13;;;;;;;6.08;100.00;100866.19;5079168;28;20020;-74
2022/11/29 11:40:00;;;;;;;57.78;24.17;;;;;;;6.07;100.00;100858.91;5096503;28;20385;-74
2022/11/29 11:42:41;;;;;;;44.35;21.02;;;;;;;6.13;100.00;100868.47;5078641;28;20361;-74
2022/11/29 11:45:10;;;;;;;41.97;21.48;;;;;;;6.18;100.00;100870.78;5095633;28;20027;-75
2022/11/29 11:47:46;;;;;;;44.90;20.58;;;;;;;6.16;100.00;100870.41;5096613;28;20532;-75
2022/11/29 11:50:14;;;;;;;44.45;21.65;;;;;;;6.16;100.00;100868.38;5095331;28;20138;-74
2022/11/29 11:52:44;;;;;;;43.55;19.70;;;;;;;6.22;100.00;100871.47;5096351;28;20444;-74
2022/11/29 11:55:32;;;;;;;44.95;21.65;;;;;;;6.23;100.00;100875.91;5095142;28;20084;-74
2022/11/29 11:58:05;;;;;;;48.45;20.70;;;;;;;6.29;100.00;100876.13;5095295;28;20103;-74
2022/11/29 12:01:01;;;;;;;36.40;19.60;;;;;;;6.35;100.00;100880.81;5095009;28;20495;-75